sensor_id;sensor_type;location;lat;lon;timestamp;pressure;altitude;pressure_sealevel;temperature;humidity
7050;BME280;22263;52.260;10.548;2023-07-31T00:01:45;100002.66;;;16.73;100.00
7050;BME280;22263;52.260;10.548;2023-07-31T00:04:15;99999.16;;;16.69;100.00
7050;BME280;22263;52.260;10.548;2023-07-31T00:06:45;99987.81;;;16.76;100.00
7050;BME280;22263;52.260;10.548;2023-07-31T00:09:15;99986.25;;;16.75;100.00
7050;BME280;22263;52.260;10.548;2023-07-31T00:11:45;99987.41;;;16.77;100.00
7050;BME280;22263;52.260;10.548;2023-07-31T00:14:14;99983.72;;;16.80;100.00
7050;BME280;22263;52.260;10.548;2023-07-31T00:16:47;99980.41;;;16.85;100.00
7050;BME280;22263;52.260;10.548;2023-07-31T00:19:18;99981.28;;;16.82;100.00
7050;BME280;22263;52.260;10.548;2023-07-31T00:21:48;99978.94;;;16.81;100.00
7050;BME280;22263;52.260;10.548;2023-07-31T00:24:18;99973.97;;;16.88;100.00
7050;BME280;22263;52.260;10.548;2023-07-31T00:26:48;99972.13;;;16.98;100.00
7050;BME280;22263;52.260;10.548;2023-07-31T00:29:18;99964.66;;;17.11;100.00
7050;BME280;22263;52.260;10.548;2023-07-31T00:31:50;99969.28;;;17.18;100.00
7050;BME280;22263;52.260;10.548;2023-07-31T00:34:20;99964.56;;;17.15;100.00
7050;BME280;22263;52.260;10.548;2023-07-31T00:36:50;99957.41;;;17.14;100.00
7050;BME280;22263;52.260;10.548;2023-07-31T00:39:20;99956.59;;;17.13;100.00
7050;BME280;22263;52.260;10.548;2023-07-31T00:41:50;99951.47;;;17.12;100.00
7050;BME280;22263;52.260;10.548;2023-07-31T00:44:20;99945.78;;;16.99;100.00
7050;BME280;22263;52.260;10.548;2023-07-31T00:46:53;99952.06;;;17.03;100.00
7050;BME280;22263;52.260;10.548;2023-07-31T00:49:23;99957.13;;;17.08;100.00
7050;BME280;22263;52.260;10.548;2023-07-31T00:51:53;99951.13;;;17.10;100.00
7050;BME280;22263;52.260;10.548;2023-07-31T00:54:24;99944.75;;;17.09;100.00
7050;BME280;22263;52.260;10.548;2023-07-31T00:56:55;99945.44;;;17.13;100.00
7050;BME280;22263;52.260;10.548;2023-07-31T00:59:24;99947.19;;;17.07;100.00
7050;BME280;22263;52.260;10.548;2023-07-31T01:01:57;99942.31;;;17.11;100.00
7050;BME280;22263;52.260;10.548;2023-07-31T01:04:27;99940.38;;;17.08;100.00
7050;BME280;22263;52.260;10.548;2023-07-31T01:07:02;99933.75;;;17.02;100.00
7050;BME280;22263;52.260;10.548;2023-07-31T01:09:43;99942.88;;;17.02;100.00
7050;BME280;22263;52.260;10.548;2023-07-31T01:12:16;99938.38;;;16.92;100.00
7050;BME280;22263;52.260;10.548;2023-07-31T01:15:02;99938.09;;;16.87;100.00
7050;BME280;22263;52.260;10.548;2023-07-31T01:17:36;99940.09;;;16.86;100.00
7050;BME280;22263;52.260;10.548;2023-07-31T01:20:11;99929.53;;;16.78;100.00
7050;BME280;22263;52.260;10.548;2023-07-31T01:23:23;99931.19;;;16.75;100.00
7050;BME280;22263;52.260;10.548;2023-07-31T01:26:05;99929.00;;;16.67;100.00
7050;BME280;22263;52.260;10.548;2023-07-31T01:28:47;99918.25;;;16.65;100.00
7050;BME280;22263;52.260;10.548;2023-07-31T01:31:21;99913.53;;;16.62;100.00
7050;BME280;22263;52.260;10.548;2023-07-31T01:33:54;99915.97;;;16.60;100.00
7050;BME280;22263;52.260;10.548;2023-07-31T01:36:25;99905.16;;;16.62;100.00
7050;BME280;22263;52.260;10.548;2023-07-31T01:38:58;99907.06;;;16.65;100.00
7050;BME280;22263;52.260;10.548;2023-07-31T01:41:30;99908.66;;;16.66;100.00
7050;BME280;22263;52.260;10.548;2023-07-31T01:44:00;99906.75;;;16.63;100.00
7050;BME280;22263;52.260;10.548;2023-07-31T01:46:30;99894.91;;;16.55;100.00
7050;BME280;22263;52.260;10.548;2023-07-31T01:49:00;99894.88;;;16.59;100.00
7050;BME280;22263;52.260;10.548;2023-07-31T01:51:32;99890.84;;;16.60;100.00
7050;BME280;22263;52.260;10.548;2023-07-31T01:54:03;99889.63;;;16.61;100.00
7050;BME280;22263;52.260;10.548;2023-07-31T01:56:35;99888.41;;;16.62;100.00
7050;BME280;22263;52.260;10.548;2023-07-31T01:59:05;99888.03;;;16.60;100.00
7050;BME280;22263;52.260;10.548;2023-07-31T02:01:35;99886.41;;;16.63;100.00
7050;BME280;22263;52.260;10.548;2023-07-31T02:04:05;99875.94;;;16.67;100.00
7050;BME280;22263;52.260;10.548;2023-07-31T02:06:34;99876.63;;;16.71;100.00
7050;BME280;22263;52.260;10.548;2023-07-31T02:09:05;99879.34;;;16.74;100.00
7050;BME280;22263;52.260;10.548;2023-07-31T02:11:40;99870.06;;;16.61;100.00
7050;BME280;22263;52.260;10.548;2023-07-31T02:14:10;99867.28;;;16.61;100.00
7050;BME280;22263;52.260;10.548;2023-07-31T02:16:39;99862.28;;;16.52;100.00
7050;BME280;22263;52.260;10.548;2023-07-31T02:19:10;99859.41;;;16.40;100.00
7050;BME280;22263;52.260;10.548;2023-07-31T02:21:40;99858.50;;;16.43;100.00
7050;BME280;22263;52.260;10.548;2023-07-31T02:24:09;99858.59;;;16.39;100.00
7050;BME280;22263;52.260;10.548;2023-07-31T02:26:42;99857.97;;;16.32;100.00
7050;BME280;22263;52.260;10.548;2023-07-31T02:29:12;99851.88;;;16.37;100.00
7050;BME280;22263;52.260;10.548;2023-07-31T02:31:44;99853.81;;;16.40;100.00
7050;BME280;22263;52.260;10.548;2023-07-31T02:34:14;99853.44;;;16.38;100.00
7050;BME280;22263;52.260;10.548;2023-07-31T02:36:43;99848.81;;;16.31;100.00
7050;BME280;22263;52.260;10.548;2023-07-31T02:39:13;99856.75;;;16.33;100.00
7050;BME280;22263;52.260;10.548;2023-07-31T02:41:46;99859.41;;;16.40;100.00
7050;BME280;22263;52.260;10.548;2023-07-31T02:44:16;99848.66;;;16.38;100.00
7050;BME280;22263;52.260;10.548;2023-07-31T02:46:47;99851.44;;;16.38;100.00
7050;BME280;22263;52.260;10.548;2023-07-31T02:49:16;99843.22;;;16.31;100.00
7050;BME280;22263;52.260;10.548;2023-07-31T02:51:46;99842.59;;;16.24;100.00
7050;BME280;22263;52.260;10.548;2023-07-31T02:54:16;99834.38;;;16.17;100.00
7050;BME280;22263;52.260;10.548;2023-07-31T02:56:50;99839.13;;;16.20;100.00
7050;BME280;22263;52.260;10.548;2023-07-31T02:59:21;99834.03;;;16.14;100.00
7050;BME280;22263;52.260;10.548;2023-07-31T03:01:52;99836.47;;;16.12;100.00
7050;BME280;22263;52.260;10.548;2023-07-31T03:04:21;99838.03;;;16.13;100.00
7050;BME280;22263;52.260;10.548;2023-07-31T03:06:51;99832.38;;;16.17;100.00
7050;BME280;22263;52.260;10.548;2023-07-31T03:09:21;99840.75;;;16.17;100.00
7050;BME280;22263;52.260;10.548;2023-07-31T03:11:53;99832.66;;;16.23;100.00
7050;BME280;22263;52.260;10.548;2023-07-31T03:14:23;99838.41;;;16.16;100.00
7050;BME280;22263;52.260;10.548;2023-07-31T03:16:53;99829.25;;;16.15;100.00
7050;BME280;22263;52.260;10.548;2023-07-31T03:19:23;99830.84;;;16.16;100.00
7050;BME280;22263;52.260;10.548;2023-07-31T03:21:53;99829.69;;;16.13;100.00
7050;BME280;22263;52.260;10.548;2023-07-31T03:24:22;99824.97;;;16.10;100.00
7050;BME280;22263;52.260;10.548;2023-07-31T03:26:55;99822.47;;;16.16;100.00
7050;BME280;22263;52.260;10.548;2023-07-31T03:29:26;99824.09;;;16.13;100.00
7050;BME280;22263;52.260;10.548;2023-07-31T03:31:56;99825.75;;;16.11;100.00
7050;BME280;22263;52.260;10.548;2023-07-31T03:34:26;99836.56;;;16.09;100.00
7050;BME280;22263;52.260;10.548;2023-07-31T03:36:58;99829.41;;;16.08;100.00
7050;BME280;22263;52.260;10.548;2023-07-31T03:39:30;99825.69;;;16.14;100.00
7050;BME280;22263;52.260;10.548;2023-07-31T03:42:02;99829.16;;;16.19;100.00
7050;BME280;22263;52.260;10.548;2023-07-31T03:44:32;99830.88;;;16.12;100.00
7050;BME280;22263;52.260;10.548;2023-07-31T03:47:04;99830.47;;;16.14;100.00
7050;BME280;22263;52.260;10.548;2023-07-31T03:49:37;99836.75;;;16.18;100.00
7050;BME280;22263;52.260;10.548;2023-07-31T03:52:07;99839.19;;;16.16;100.00
7050;BME280;22263;52.260;10.548;2023-07-31T03:54:36;99840.03;;;16.13;100.00
7050;BME280;22263;52.260;10.548;2023-07-31T03:57:09;99850.09;;;16.10;100.00
7050;BME280;22263;52.260;10.548;2023-07-31T03:59:38;99842.22;;;16.05;100.00
7050;BME280;22263;52.260;10.548;2023-07-31T04:02:08;99847.00;;;16.05;100.00
7050;BME280;22263;52.260;10.548;2023-07-31T04:04:38;99848.94;;;16.08;100.00
7050;BME280;22263;52.260;10.548;2023-07-31T04:07:08;99840.91;;;16.10;100.00
7050;BME280;22263;52.260;10.548;2023-07-31T04:09:37;99842.94;;;16.09;100.00
7050;BME280;22263;52.260;10.548;2023-07-31T04:12:10;99844.06;;;16.12;100.00
7050;BME280;22263;52.260;10.548;2023-07-31T04:14:39;99845.34;;;16.07;100.00
7050;BME280;22263;52.260;10.548;2023-07-31T04:17:09;99843.34;;;16.08;100.00
7050;BME280;22263;52.260;10.548;2023-07-31T04:19:39;99843.44;;;16.04;100.00
7050;BME280;22263;52.260;10.548;2023-07-31T04:22:09;99841.50;;;16.01;100.00
7050;BME280;22263;52.260;10.548;2023-07-31T04:24:39;99843.44;;;16.04;100.00
7050;BME280;22263;52.260;10.548;2023-07-31T04:27:11;99842.56;;;16.07;100.00
7050;BME280;22263;52.260;10.548;2023-07-31T04:29:41;99835.34;;;16.10;100.00
7050;BME280;22263;52.260;10.548;2023-07-31T04:32:12;99836.13;;;16.10;100.00
7050;BME280;22263;52.260;10.548;2023-07-31T04:34:43;99827.69;;;16.14;100.00
7050;BME280;22263;52.260;10.548;2023-07-31T04:37:13;99828.81;;;16.17;100.00
7050;BME280;22263;52.260;10.548;2023-07-31T04:39:43;99832.97;;;16.08;100.00
7050;BME280;22263;52.260;10.548;2023-07-31T04:42:15;99835.69;;;16.12;100.00
7050;BME280;22263;52.260;10.548;2023-07-31T04:44:45;99830.28;;;16.05;100.00
7050;BME280;22263;52.260;10.548;2023-07-31T04:47:14;99842.81;;;15.97;100.00
7050;BME280;22263;52.260;10.548;2023-07-31T04:49:44;99838.94;;;15.91;100.00
7050;BME280;22263;52.260;10.548;2023-07-31T04:52:14;99843.31;;;15.92;100.00
7050;BME280;22263;52.260;10.548;2023-07-31T04:54:44;99843.53;;;15.81;100.00
7050;BME280;22263;52.260;10.548;2023-07-31T04:57:16;99844.75;;;15.80;100.00
7050;BME280;22263;52.260;10.548;2023-07-31T04:59:46;99843.38;;;15.68;100.00
7050;BME280;22263;52.260;10.548;2023-07-31T05:02:17;99853.47;;;15.62;100.00
7050;BME280;22263;52.260;10.548;2023-07-31T05:04:47;99845.09;;;15.62;100.00
7050;BME280;22263;52.260;10.548;2023-07-31T05:07:16;99852.69;;;15.62;100.00
7050;BME280;22263;52.260;10.548;2023-07-31T05:09:46;99842.56;;;15.48;100.00
7050;BME280;22263;52.260;10.548;2023-07-31T05:12:19;99855.06;;;15.40;100.00
7050;BME280;22263;52.260;10.548;2023-07-31T05:14:48;99838.31;;;15.40;100.00
7050;BME280;22263;52.260;10.548;2023-07-31T05:17:18;99839.97;;;15.38;100.00
7050;BME280;22263;52.260;10.548;2023-07-31T05:19:48;99839.97;;;15.38;100.00
7050;BME280;22263;52.260;10.548;2023-07-31T05:22:18;99829.94;;;15.44;100.00
7050;BME280;22263;52.260;10.548;2023-07-31T05:24:47;99840.63;;;15.45;100.00
7050;BME280;22263;52.260;10.548;2023-07-31T05:27:20;99826.75;;;15.42;100.00
7050;BME280;22263;52.260;10.548;2023-07-31T05:29:50;99825.19;;;15.41;100.00
7050;BME280;22263;52.260;10.548;2023-07-31T05:32:19;99820.00;;;15.43;100.00
7050;BME280;22263;52.260;10.548;2023-07-31T05:34:50;99819.03;;;15.53;100.00
7050;BME280;22263;52.260;10.548;2023-07-31T05:37:21;99817.19;;;15.43;100.00
7050;BME280;22263;52.260;10.548;2023-07-31T05:39:51;99823.06;;;15.48;100.00
7050;BME280;22263;52.260;10.548;2023-07-31T05:42:24;99808.34;;;15.48;100.00
7050;BME280;22263;52.260;10.548;2023-07-31T05:44:53;99804.72;;;15.51;100.00
7050;BME280;22263;52.260;10.548;2023-07-31T05:47:23;99803.88;;;15.54;100.00
7050;BME280;22263;52.260;10.548;2023-07-31T05:49:53;99797.78;;;15.59;100.00
7050;BME280;22263;52.260;10.548;2023-07-31T05:52:23;99797.28;;;15.64;100.00
7050;BME280;22263;52.260;10.548;2023-07-31T05:54:53;99798.00;;;15.68;100.00
7050;BME280;22263;52.260;10.548;2023-07-31T05:57:26;99798.94;;;15.61;100.00
7050;BME280;22263;52.260;10.548;2023-07-31T05:59:55;99801.94;;;15.51;100.00
7050;BME280;22263;52.260;10.548;2023-07-31T06:02:25;99793.06;;;15.56;100.00
7050;BME280;22263;52.260;10.548;2023-07-31T06:04:55;99793.16;;;15.52;100.00
7050;BME280;22263;52.260;10.548;2023-07-31T06:07:25;99791.19;;;15.69;100.00
7050;BME280;22263;52.260;10.548;2023-07-31T06:09:55;99779.19;;;15.72;100.00
7050;BME280;22263;52.260;10.548;2023-07-31T06:12:33;99771.53;;;15.76;100.00
7050;BME280;22263;52.260;10.548;2023-07-31T06:15:04;99780.97;;;15.82;100.00
7050;BME280;22263;52.260;10.548;2023-07-31T06:17:34;99774.16;;;15.83;100.00
7050;BME280;22263;52.260;10.548;2023-07-31T06:20:05;99774.56;;;16.01;100.00
7050;BME280;22263;52.260;10.548;2023-07-31T06:22:35;99772.66;;;16.14;100.00
7050;BME280;22263;52.260;10.548;2023-07-31T06:25:06;99773.88;;;16.13;100.00
7050;BME280;22263;52.260;10.548;2023-07-31T06:27:43;99776.06;;;16.22;100.00
7050;BME280;22263;52.260;10.548;2023-07-31T06:30:13;99774.00;;;16.42;100.00
7050;BME280;22263;52.260;10.548;2023-07-31T06:32:43;99778.53;;;16.52;100.00
7050;BME280;22263;52.260;10.548;2023-07-31T06:35:13;99772.25;;;16.65;100.00
7050;BME280;22263;52.260;10.548;2023-07-31T06:37:45;99781.09;;;16.63;100.00
7050;BME280;22263;52.260;10.548;2023-07-31T06:40:15;99774.03;;;16.59;100.00
7050;BME280;22263;52.260;10.548;2023-07-31T06:42:48;99789.53;;;16.60;100.00
7050;BME280;22263;52.260;10.548;2023-07-31T06:45:18;99778.91;;;16.54;100.00
7050;BME280;22263;52.260;10.548;2023-07-31T06:48:04;99777.94;;;16.61;100.00
7050;BME280;22263;52.260;10.548;2023-07-31T06:50:34;99768.44;;;16.59;100.00
7050;BME280;22263;52.260;10.548;2023-07-31T06:53:04;99764.69;;;16.65;100.00
7050;BME280;22263;52.260;10.548;2023-07-31T06:55:34;99765.28;;;16.73;100.00
7050;BME280;22263;52.260;10.548;2023-07-31T06:58:07;99753.94;;;16.80;100.00
7050;BME280;22263;52.260;10.548;2023-07-31T07:00:37;99760.03;;;16.91;100.00
7050;BME280;22263;52.260;10.548;2023-07-31T07:03:06;99750.06;;;16.90;100.00
7050;BME280;22263;52.260;10.548;2023-07-31T07:05:36;99761.50;;;16.95;100.00
7050;BME280;22263;52.260;10.548;2023-07-31T07:08:06;99770.66;;;16.96;100.00
7050;BME280;22263;52.260;10.548;2023-07-31T07:10:36;99757.91;;;16.95;100.00
7050;BME280;22263;52.260;10.548;2023-07-31T07:13:09;99758.03;;;16.91;100.00
7050;BME280;22263;52.260;10.548;2023-07-31T07:15:39;99754.41;;;17.07;100.00
7050;BME280;22263;52.260;10.548;2023-07-31T07:18:09;99760.06;;;17.04;100.00
7050;BME280;22263;52.260;10.548;2023-07-31T07:20:45;99759.94;;;16.94;100.00
7050;BME280;22263;52.260;10.548;2023-07-31T07:23:16;99760.28;;;16.96;100.00
7050;BME280;22263;52.260;10.548;2023-07-31T07:25:46;99759.59;;;16.92;100.00
7050;BME280;22263;52.260;10.548;2023-07-31T07:28:18;99757.81;;;16.98;100.00
7050;BME280;22263;52.260;10.548;2023-07-31T07:30:51;99761.75;;;17.01;100.00
7050;BME280;22263;52.260;10.548;2023-07-31T07:33:22;99759.38;;;16.99;100.00
7050;BME280;22263;52.260;10.548;2023-07-31T07:35:51;99758.06;;;17.04;100.00
7050;BME280;22263;52.260;10.548;2023-07-31T07:38:21;99763.75;;;17.00;100.00
7050;BME280;22263;52.260;10.548;2023-07-31T07:40:51;99755.47;;;16.97;100.00
7050;BME280;22263;52.260;10.548;2023-07-31T07:43:26;99755.03;;;16.98;100.00
7050;BME280;22263;52.260;10.548;2023-07-31T07:45:55;99756.16;;;17.01;100.00
7050;BME280;22263;52.260;10.548;2023-07-31T07:48:25;99749.00;;;17.00;100.00
7050;BME280;22263;52.260;10.548;2023-07-31T07:50:57;99750.91;;;17.03;100.00
7050;BME280;22263;52.260;10.548;2023-07-31T07:53:26;99750.03;;;17.06;100.00
7050;BME280;22263;52.260;10.548;2023-07-31T07:55:56;99750.03;;;17.06;100.00
7050;BME280;22263;52.260;10.548;2023-07-31T07:58:29;99741.91;;;17.12;100.00
7050;BME280;22263;52.260;10.548;2023-07-31T08:01:01;99745.53;;;17.25;100.00
7050;BME280;22263;52.260;10.548;2023-07-31T08:03:31;99754.25;;;17.27;100.00
7050;BME280;22263;52.260;10.548;2023-07-31T08:06:01;99760.69;;;17.40;100.00
7050;BME280;22263;52.260;10.548;2023-07-31T08:08:31;99752.97;;;17.44;100.00
7050;BME280;22263;52.260;10.548;2023-07-31T08:11:01;99749.28;;;17.47;100.00
7050;BME280;22263;52.260;10.548;2023-07-31T08:13:34;99753.38;;;17.59;100.00
7050;BME280;22263;52.260;10.548;2023-07-31T08:16:05;99749.84;;;17.83;100.00
7050;BME280;22263;52.260;10.548;2023-07-31T08:18:35;99742.56;;;18.11;100.00
7050;BME280;22263;52.260;10.548;2023-07-31T08:21:07;99743.44;;;18.46;100.00
7050;BME280;22263;52.260;10.548;2023-07-31T08:23:37;99744.00;;;18.54;100.00
7050;BME280;22263;52.260;10.548;2023-07-31T08:26:07;99721.22;;;18.52;100.00
7050;BME280;22263;52.260;10.548;2023-07-31T08:28:39;99711.22;;;18.76;100.00
7050;BME280;22263;52.260;10.548;2023-07-31T08:31:09;99706.75;;;18.66;100.00
7050;BME280;22263;52.260;10.548;2023-07-31T08:33:39;99709.25;;;18.98;100.00
7050;BME280;22263;52.260;10.548;2023-07-31T08:36:09;99708.66;;;19.03;100.00
7050;BME280;22263;52.260;10.548;2023-07-31T08:38:39;99695.19;;;18.77;100.00
7050;BME280;22263;52.260;10.548;2023-07-31T08:41:08;99693.16;;;18.55;100.00
7050;BME280;22263;52.260;10.548;2023-07-31T08:43:44;99710.84;;;18.40;100.00
7050;BME280;22263;52.260;10.548;2023-07-31T08:46:14;99705.16;;;18.30;100.00
7050;BME280;22263;52.260;10.548;2023-07-31T08:48:45;99714.66;;;18.33;100.00
7050;BME280;22263;52.260;10.548;2023-07-31T08:51:15;99716.00;;;18.28;100.00
7050;BME280;22263;52.260;10.548;2023-07-31T08:53:45;99719.84;;;18.09;100.00
7050;BME280;22263;52.260;10.548;2023-07-31T08:56:15;99720.06;;;18.15;100.00
7050;BME280;22263;52.260;10.548;2023-07-31T08:58:49;99727.00;;;18.10;100.00
7050;BME280;22263;52.260;10.548;2023-07-31T09:01:20;99722.09;;;18.02;100.00
7050;BME280;22263;52.260;10.548;2023-07-31T09:03:52;99731.50;;;18.08;100.00
7050;BME280;22263;52.260;10.548;2023-07-31T09:06:25;99720.50;;;18.13;100.00
7050;BME280;22263;52.260;10.548;2023-07-31T09:08:56;99716.81;;;18.16;100.00
7050;BME280;22263;52.260;10.548;2023-07-31T09:11:26;99718.50;;;18.26;100.00
7050;BME280;22263;52.260;10.548;2023-07-31T09:14:00;99714.25;;;18.22;100.00
7050;BME280;22263;52.260;10.548;2023-07-31T09:16:51;99715.56;;;18.30;100.00
7050;BME280;22263;52.260;10.548;2023-07-31T09:19:25;99711.63;;;18.40;100.00
7050;BME280;22263;52.260;10.548;2023-07-31T09:21:55;99703.13;;;18.31;100.00
7050;BME280;22263;52.260;10.548;2023-07-31T09:24:26;99699.69;;;18.27;100.00
7050;BME280;22263;52.260;10.548;2023-07-31T09:26:58;99700.34;;;18.18;100.00
7050;BME280;22263;52.260;10.548;2023-07-31T09:29:31;99686.75;;;18.42;100.00
7050;BME280;22263;52.260;10.548;2023-07-31T09:32:01;99698.06;;;18.39;100.00
7050;BME280;22263;52.260;10.548;2023-07-31T09:34:37;99707.06;;;18.21;100.00
7050;BME280;22263;52.260;10.548;2023-07-31T09:37:07;99710.31;;;18.07;100.00
7050;BME280;22263;52.260;10.548;2023-07-31T09:39:45;99709.09;;;18.08;100.00
7050;BME280;22263;52.260;10.548;2023-07-31T09:42:25;99710.53;;;18.00;100.00
7050;BME280;22263;52.260;10.548;2023-07-31T09:45:07;99701.91;;;17.94;100.00
7050;BME280;22263;52.260;10.548;2023-07-31T09:47:37;99714.00;;;17.91;100.00
7050;BME280;22263;52.260;10.548;2023-07-31T09:50:07;99703.81;;;17.84;100.00
7050;BME280;22263;52.260;10.548;2023-07-31T09:52:38;99699.34;;;18.00;100.00
7050;BME280;22263;52.260;10.548;2023-07-31T09:55:10;99704.06;;;18.03;100.00
7050;BME280;22263;52.260;10.548;2023-07-31T09:57:41;99710.75;;;18.05;100.00
7050;BME280;22263;52.260;10.548;2023-07-31T10:00:16;99709.75;;;17.99;100.00
7050;BME280;22263;52.260;10.548;2023-07-31T10:02:46;99696.66;;;18.09;100.00
7050;BME280;22263;52.260;10.548;2023-07-31T10:05:17;99695.31;;;18.13;100.00
7050;BME280;22263;52.260;10.548;2023-07-31T10:07:51;99697.75;;;18.24;100.00
7050;BME280;22263;52.260;10.548;2023-07-31T10:10:23;99707.41;;;18.10;100.00
7050;BME280;22263;52.260;10.548;2023-07-31T10:12:56;99692.06;;;18.15;100.00
7050;BME280;22263;52.260;10.548;2023-07-31T10:15:32;99693.25;;;18.39;100.00
7050;BME280;22263;52.260;10.548;2023-07-31T10:18:02;99696.06;;;18.39;100.00
7050;BME280;22263;52.260;10.548;2023-07-31T10:20:35;99686.53;;;18.49;100.00
7050;BME280;22263;52.260;10.548;2023-07-31T10:23:06;99677.53;;;18.67;100.00
7050;BME280;22263;52.260;10.548;2023-07-31T10:25:36;99677.28;;;18.74;100.00
7050;BME280;22263;52.260;10.548;2023-07-31T10:28:08;99667.31;;;18.95;100.00
7050;BME280;22263;52.260;10.548;2023-07-31T10:30:42;99668.41;;;19.19;100.00
7050;BME280;22263;52.260;10.548;2023-07-31T10:33:12;99668.75;;;19.21;100.00
7050;BME280;22263;52.260;10.548;2023-07-31T10:35:42;99659.22;;;19.40;100.00
7050;BME280;22263;52.260;10.548;2023-07-31T10:38:12;99639.72;;;19.68;100.00
7050;BME280;22263;52.260;10.548;2023-07-31T10:40:42;99637.91;;;19.74;100.00
7050;BME280;22263;52.260;10.548;2023-07-31T10:43:24;99623.09;;;19.73;100.00
7050;BME280;22263;52.260;10.548;2023-07-31T10:45:57;99629.44;;;19.65;100.00
7050;BME280;22263;52.260;10.548;2023-07-31T10:48:33;99624.88;;;19.98;100.00
7050;BME280;22263;52.260;10.548;2023-07-31T10:51:07;99622.13;;;19.67;100.00
7050;BME280;22263;52.260;10.548;2023-07-31T10:53:39;99614.50;;;19.77;100.00
7050;BME280;22263;52.260;10.548;2023-07-31T10:56:10;99617.47;;;19.73;100.00
7050;BME280;22263;52.260;10.548;2023-07-31T10:58:45;99614.38;;;19.80;100.00
7050;BME280;22263;52.260;10.548;2023-07-31T11:01:18;99611.53;;;19.71;100.00
7050;BME280;22263;52.260;10.548;2023-07-31T11:03:49;99601.59;;;19.79;100.00
7050;BME280;22263;52.260;10.548;2023-07-31T11:06:19;99598.47;;;19.86;100.00
7050;BME280;22263;52.260;10.548;2023-07-31T11:08:50;99600.47;;;20.44;100.00
7050;BME280;22263;52.260;10.548;2023-07-31T11:11:20;99600.00;;;20.64;100.00
7050;BME280;22263;52.260;10.548;2023-07-31T11:13:51;99580.81;;;20.62;100.00
7050;BME280;22263;52.260;10.548;2023-07-31T11:16:25;99582.66;;;20.83;100.00
7050;BME280;22263;52.260;10.548;2023-07-31T11:18:54;99584.66;;;20.92;100.00
7050;BME280;22263;52.260;10.548;2023-07-31T11:21:25;99578.41;;;20.97;100.00
7050;BME280;22263;52.260;10.548;2023-07-31T11:23:57;99572.47;;;21.13;100.00
7050;BME280;22263;52.260;10.548;2023-07-31T11:26:27;99560.34;;;22.21;100.00
7050;BME280;22263;52.260;10.548;2023-07-31T11:28:57;99558.38;;;22.74;100.00
7050;BME280;22263;52.260;10.548;2023-07-31T11:31:30;99545.81;;;22.75;100.00
7050;BME280;22263;52.260;10.548;2023-07-31T11:34:06;99560.81;;;22.43;100.00
7050;BME280;22263;52.260;10.548;2023-07-31T11:36:35;99548.50;;;22.55;100.00
7050;BME280;22263;52.260;10.548;2023-07-31T11:39:07;99562.59;;;22.16;100.00
7050;BME280;22263;52.260;10.548;2023-07-31T11:41:40;99549.72;;;21.68;100.00
7050;BME280;22263;52.260;10.548;2023-07-31T11:44:10;99552.06;;;21.37;100.00
7050;BME280;22263;52.260;10.548;2023-07-31T11:46:56;99544.28;;;21.31;100.00
7050;BME280;22263;52.260;10.548;2023-07-31T11:49:26;99530.16;;;21.41;100.00
7050;BME280;22263;52.260;10.548;2023-07-31T11:51:56;99550.91;;;21.19;100.00
7050;BME280;22263;52.260;10.548;2023-07-31T11:54:26;99534.34;;;21.03;100.00
7050;BME280;22263;52.260;10.548;2023-07-31T11:56:55;99552.00;;;21.04;100.00
7050;BME280;22263;52.260;10.548;2023-07-31T11:59:29;99542.16;;;21.08;100.00
7050;BME280;22263;52.260;10.548;2023-07-31T12:02:05;99537.44;;;21.23;100.00
7050;BME280;22263;52.260;10.548;2023-07-31T12:04:35;99525.91;;;21.03;100.00
7050;BME280;22263;52.260;10.548;2023-07-31T12:07:06;99540.00;;;20.94;100.00
7050;BME280;22263;52.260;10.548;2023-07-31T12:09:35;99525.00;;;20.97;100.00
7050;BME280;22263;52.260;10.548;2023-07-31T12:12:08;99530.72;;;21.12;100.00
7050;BME280;22263;52.260;10.548;2023-07-31T12:14:41;99536.25;;;20.97;100.00
7050;BME280;22263;52.260;10.548;2023-07-31T12:17:14;99535.75;;;21.17;100.00
7050;BME280;22263;52.260;10.548;2023-07-31T12:19:44;99539.31;;;21.26;100.00
7050;BME280;22263;52.260;10.548;2023-07-31T12:22:15;99542.94;;;21.09;100.00
7050;BME280;22263;52.260;10.548;2023-07-31T12:24:45;99532.50;;;20.91;100.00
7050;BME280;22263;52.260;10.548;2023-07-31T12:27:15;99527.16;;;21.02;100.00
7050;BME280;22263;52.260;10.548;2023-07-31T12:29:45;99524.03;;;21.18;100.00
7050;BME280;22263;52.260;10.548;2023-07-31T12:32:22;99524.78;;;21.28;100.00
7050;BME280;22263;52.260;10.548;2023-07-31T12:34:59;99511.69;;;21.16;100.00
7050;BME280;22263;52.260;10.548;2023-07-31T12:37:29;99526.84;;;21.18;100.00
7050;BME280;22263;52.260;10.548;2023-07-31T12:39:59;99514.88;;;20.91;100.00
7050;BME280;22263;52.260;10.548;2023-07-31T12:42:35;99521.91;;;20.95;100.00
7050;BME280;22263;52.260;10.548;2023-07-31T12:45:05;99518.75;;;20.93;100.00
7050;BME280;22263;52.260;10.548;2023-07-31T12:47:38;99516.06;;;21.08;100.00
7050;BME280;22263;52.260;10.548;2023-07-31T12:50:08;99513.25;;;21.08;100.00
7050;BME280;22263;52.260;10.548;2023-07-31T12:52:38;99507.84;;;20.95;100.00
7050;BME280;22263;52.260;10.548;2023-07-31T12:55:08;99497.09;;;21.26;100.00
7050;BME280;22263;52.260;10.548;2023-07-31T12:57:38;99509.31;;;21.23;100.00
7050;BME280;22263;52.260;10.548;2023-07-31T13:00:09;99508.53;;;21.23;100.00
7050;BME280;22263;52.260;10.548;2023-07-31T13:02:42;99502.09;;;21.31;100.00
7050;BME280;22263;52.260;10.548;2023-07-31T13:05:12;99498.84;;;21.24;100.00
7050;BME280;22263;52.260;10.548;2023-07-31T13:07:43;99492.91;;;21.22;100.00
7050;BME280;22263;52.260;10.548;2023-07-31T13:10:12;99489.59;;;21.33;100.00
7050;BME280;22263;52.260;10.548;2023-07-31T13:12:42;99502.56;;;21.30;100.00